createdAt,value
2022-08-08T00:01:08.809Z,18.14
2022-08-08T00:03:47.516Z,18.12
2022-08-08T00:06:28.348Z,18.06
2022-08-08T00:09:12.135Z,18.08
2022-08-08T00:11:46.719Z,18.09
2022-08-08T00:14:48.154Z,18.07
2022-08-08T00:18:02.360Z,18.09
2022-08-08T00:20:37.376Z,18.11
2022-08-08T00:23:14.710Z,18.09
2022-08-08T00:25:51.350Z,18.07
2022-08-08T00:28:35.788Z,17.96
2022-08-08T00:32:20.244Z,17.91
2022-08-08T00:34:31.852Z,17.89
2022-08-08T00:37:45.140Z,17.90
2022-08-08T00:41:13.011Z,17.84
2022-08-08T00:43:41.660Z,17.77
2022-08-08T00:46:57.397Z,17.76
2022-08-08T00:50:04.469Z,17.76
2022-08-08T00:52:48.798Z,17.69
2022-08-08T00:55:59.335Z,17.65
2022-08-08T00:59:18.732Z,17.62
2022-08-08T01:03:58.584Z,17.61
2022-08-08T01:06:08.260Z,17.57
2022-08-08T01:09:35.693Z,17.51
2022-08-08T01:12:26.848Z,17.48
2022-08-08T01:15:44.154Z,17.49
2022-08-08T01:18:53.017Z,17.46
2022-08-08T01:22:10.128Z,17.42
2022-08-08T01:24:54.389Z,17.40
2022-08-08T01:28:00.055Z,17.40
2022-08-08T01:32:02.667Z,17.38
2022-08-08T01:34:53.549Z,17.26
2022-08-08T01:38:00.288Z,17.26
2022-08-08T01:40:38.789Z,17.21
2022-08-08T01:43:16.634Z,17.25
2022-08-08T01:45:56.697Z,17.21
2022-08-08T01:48:43.856Z,17.22
2022-08-08T01:52:42.787Z,17.23
2022-08-08T01:55:45.244Z,17.18
2022-08-08T01:58:03.971Z,17.15
2022-08-08T02:00:25.333Z,17.14
2022-08-08T02:03:49.489Z,17.18
2022-08-08T02:06:32.571Z,17.15
2022-08-08T02:09:16.247Z,17.10
2022-08-08T02:12:00.062Z,17.14
2022-08-08T02:14:49.872Z,17.00
2022-08-08T02:17:35.277Z,16.99
2022-08-08T02:21:01.251Z,17.01
2022-08-08T02:23:16.646Z,16.97
2022-08-08T02:25:53.150Z,16.91
2022-08-08T02:28:41.396Z,16.90
2022-08-08T02:31:59.051Z,16.88
2022-08-08T02:34:33.006Z,16.84
2022-08-08T02:37:52.726Z,16.80
2022-08-08T02:40:08.645Z,16.69
2022-08-08T02:44:44.952Z,16.72
2022-08-08T02:46:21.888Z,16.62
2022-08-08T02:49:27.697Z,16.61
2022-08-08T02:52:35.031Z,16.54
2022-08-08T02:55:25.763Z,16.45
2022-08-08T02:59:25.787Z,16.46
2022-08-08T03:02:30.365Z,16.48
2022-08-08T03:05:45.442Z,16.49
2022-08-08T03:08:57.019Z,16.55
2022-08-08T03:12:14.021Z,16.58
2022-08-08T03:16:01.581Z,16.61
2022-08-08T03:17:52.086Z,16.70
2022-08-08T03:20:47.031Z,16.70
2022-08-08T03:23:21.943Z,16.68
2022-08-08T03:25:52.143Z,16.63
2022-08-08T03:28:28.684Z,16.65
2022-08-08T03:31:07.862Z,16.69
2022-08-08T03:33:58.221Z,16.72
2022-08-08T03:36:30.640Z,16.78
2022-08-08T03:39:14.839Z,16.82
2022-08-08T03:42:27.145Z,16.89
2022-08-08T03:44:35.246Z,16.92
2022-08-08T03:47:14.194Z,16.96
2022-08-08T03:50:00.336Z,16.97
2022-08-08T03:52:33.701Z,17.03
2022-08-08T03:55:55.178Z,17.06
2022-08-08T03:58:34.251Z,17.07
2022-08-08T04:01:02.566Z,17.12
2022-08-08T04:03:58.102Z,17.21
2022-08-08T04:06:29.734Z,17.22
2022-08-08T04:08:58.339Z,17.24
2022-08-08T04:11:58.865Z,17.30
2022-08-08T04:14:35.586Z,17.26
2022-08-08T04:17:07.002Z,17.30
2022-08-08T04:19:43.635Z,17.30
2022-08-08T04:22:11.732Z,17.31
2022-08-08T04:24:44.504Z,17.34
2022-08-08T04:28:03.137Z,17.36
2022-08-08T04:30:17.489Z,17.36
2022-08-08T04:32:49.859Z,17.41
2022-08-08T04:35:18.345Z,17.45
2022-08-08T04:37:50.374Z,17.42
2022-08-08T04:40:19.425Z,17.52
2022-08-08T04:42:56.816Z,17.63
2022-08-08T04:45:26.561Z,17.75
2022-08-08T04:47:54.977Z,17.76
2022-08-08T04:50:23.817Z,17.87
2022-08-08T04:53:00.830Z,17.92
2022-08-08T04:55:47.653Z,17.99
2022-08-08T04:58:22.926Z,18.03
2022-08-08T05:00:51.788Z,18.09
2022-08-08T05:04:09.153Z,18.18
2022-08-08T05:06:13.249Z,18.16
2022-08-08T05:08:43.059Z,18.02
2022-08-08T05:11:22.714Z,18.11
2022-08-08T05:13:57.975Z,18.22
2022-08-08T05:16:55.527Z,18.29
2022-08-08T05:20:08.909Z,18.41
2022-08-08T05:22:07.074Z,18.52
2022-08-08T05:24:37.445Z,18.63
2022-08-08T05:27:06.195Z,18.81
2022-08-08T05:29:36.990Z,18.94
2022-08-08T05:32:07.514Z,18.98
2022-08-08T05:34:37.899Z,19.01
2022-08-08T05:37:11.875Z,18.86
2022-08-08T05:39:48.135Z,18.99
2022-08-08T05:42:16.432Z,19.08
2022-08-08T05:44:51.573Z,19.21
2022-08-08T05:47:23.423Z,19.28
2022-08-08T05:49:53.871Z,19.34
2022-08-08T05:52:31.635Z,19.37
2022-08-08T05:55:09.002Z,19.24
2022-08-08T05:58:04.841Z,18.96
2022-08-08T06:00:33.935Z,18.86
2022-08-08T06:03:13.376Z,18.87
2022-08-08T06:05:53.229Z,18.88
2022-08-08T06:08:33.175Z,18.96
2022-08-08T06:11:02.245Z,19.09
2022-08-08T06:13:36.347Z,19.33
2022-08-08T06:16:18.798Z,19.50
2022-08-08T06:18:50.204Z,19.64
2022-08-08T06:21:33.060Z,19.60
2022-08-08T06:24:13.764Z,19.53
2022-08-08T06:26:57.861Z,19.66
2022-08-08T06:29:56.863Z,19.66
2022-08-08T06:32:31.331Z,19.84
2022-08-08T06:36:04.944Z,20.16
2022-08-08T06:37:55.787Z,20.22
2022-08-08T06:40:27.004Z,20.27
2022-08-08T06:43:01.866Z,20.26
2022-08-08T06:45:33.772Z,20.31
2022-08-08T06:48:04.470Z,20.31
2022-08-08T06:50:38.589Z,20.59
2022-08-08T06:53:17.557Z,20.70
2022-08-08T06:56:02.615Z,22.38
2022-08-08T06:58:33.880Z,24.58
2022-08-08T07:01:11.704Z,25.83
2022-08-08T07:04:37.357Z,26.32
2022-08-08T07:06:55.720Z,27.67
2022-08-08T07:09:45.431Z,28.54
2022-08-08T07:12:24.241Z,29.05
2022-08-08T07:15:04.650Z,29.05
2022-08-08T07:18:00.624Z,30.18
2022-08-08T07:20:30.876Z,31.34
2022-08-08T07:23:03.166Z,31.47
2022-08-08T07:25:35.201Z,31.06
2022-08-08T07:28:18.573Z,32.31
2022-08-08T07:30:47.935Z,32.76
2022-08-08T07:33:17.564Z,32.77
2022-08-08T07:35:48.631Z,33.48
2022-08-08T07:38:24.786Z,34.16
2022-08-08T07:40:59.045Z,34.66
2022-08-08T07:43:36.774Z,34.74
2022-08-08T07:46:23.100Z,34.45
2022-08-08T07:48:52.253Z,34.65
2022-08-08T07:51:24.397Z,33.56
2022-08-08T07:54:26.407Z,33.25
2022-08-08T07:57:09.006Z,33.44
2022-08-08T07:59:51.595Z,35.02
2022-08-08T08:02:36.850Z,36.00
2022-08-08T08:05:19.082Z,34.38
2022-08-08T08:07:53.288Z,33.99
2022-08-08T08:10:30.242Z,33.81
2022-08-08T08:13:25.957Z,33.37
2022-08-08T08:16:11.444Z,34.24
2022-08-08T08:18:55.674Z,34.41
2022-08-08T08:21:44.800Z,33.82
2022-08-08T08:24:18.495Z,33.95
2022-08-08T08:26:52.725Z,34.27
2022-08-08T08:29:24.231Z,34.96
2022-08-08T08:31:57.523Z,35.93
2022-08-08T08:34:32.366Z,36.02
2022-08-08T08:37:03.327Z,36.46
2022-08-08T08:39:59.322Z,36.59
2022-08-08T08:42:31.850Z,36.81
2022-08-08T08:45:22.048Z,37.30
2022-08-08T08:47:54.518Z,37.62
2022-08-08T08:50:32.861Z,37.85
2022-08-08T08:53:54.890Z,37.69
2022-08-08T08:56:02.061Z,37.31
2022-08-08T08:58:33.436Z,37.36
2022-08-08T09:01:08.642Z,37.47
2022-08-08T09:03:46.900Z,37.22
2022-08-08T09:06:27.138Z,37.50
2022-08-08T09:09:07.313Z,37.47
2022-08-08T09:12:01.476Z,37.63
2022-08-08T09:14:34.327Z,36.87
2022-08-08T09:17:11.589Z,37.95
2022-08-08T09:22:31.450Z,36.55
2022-08-08T09:24:59.331Z,34.82
2022-08-08T09:27:56.740Z,34.11
2022-08-08T09:30:22.168Z,33.07
2022-08-08T09:33:12.295Z,33.20
2022-08-08T09:35:49.572Z,32.82
2022-08-08T09:38:31.971Z,31.66
2022-08-08T09:41:06.500Z,30.42
2022-08-08T09:44:05.257Z,29.53
2022-08-08T09:46:36.253Z,28.90
2022-08-08T09:49:41.491Z,28.25
2022-08-08T09:52:07.076Z,28.06
2022-08-08T09:54:45.642Z,28.14
2022-08-08T09:57:19.713Z,28.29
2022-08-08T10:02:47.500Z,28.66
2022-08-08T10:05:23.077Z,28.20
2022-08-08T10:08:00.035Z,28.24
2022-08-08T10:10:30.120Z,28.52
2022-08-08T10:13:06.052Z,28.58
2022-08-08T10:15:59.008Z,28.51
2022-08-08T10:18:32.849Z,28.64
2022-08-08T10:21:22.423Z,28.77
2022-08-08T10:23:58.643Z,28.58
2022-08-08T10:26:52.311Z,28.42
2022-08-08T10:29:25.129Z,28.31
2022-08-08T10:32:17.124Z,28.54
2022-08-08T10:34:57.024Z,28.42
2022-08-08T10:37:30.222Z,27.99
2022-08-08T10:40:02.436Z,28.18
2022-08-08T10:42:37.531Z,27.95
2022-08-08T10:45:09.229Z,28.23
2022-08-08T10:47:43.948Z,28.41
2022-08-08T10:50:16.425Z,27.82
2022-08-08T10:52:44.868Z,27.96
2022-08-08T10:55:41.017Z,27.98
2022-08-08T10:58:07.467Z,28.12
2022-08-08T11:00:48.450Z,28.18
2022-08-08T11:03:37.108Z,28.02
2022-08-08T11:06:17.547Z,28.19
2022-08-08T11:08:53.298Z,28.21
2022-08-08T11:11:32.313Z,28.15
2022-08-08T11:14:12.451Z,27.85
2022-08-08T11:16:46.680Z,27.68
2022-08-08T11:19:18.060Z,27.60
2022-08-08T11:21:55.377Z,27.51
2022-08-08T11:24:27.476Z,27.42
2022-08-08T11:27:03.032Z,27.49
2022-08-08T11:29:50.855Z,27.50
2022-08-08T11:32:31.415Z,27.36
2022-08-08T11:35:23.158Z,27.51
2022-08-08T11:38:38.905Z,27.75
2022-08-08T11:40:44.783Z,27.74
2022-08-08T11:43:18.158Z,27.86
2022-08-08T11:46:09.149Z,27.94
2022-08-08T11:48:35.143Z,27.94
2022-08-08T11:51:30.948Z,27.80
2022-08-08T11:54:01.172Z,27.85
2022-08-08T11:56:34.459Z,27.67
2022-08-08T11:59:10.000Z,27.56
2022-08-08T12:01:38.603Z,27.49
2022-08-08T12:04:09.181Z,27.25
2022-08-08T12:06:42.964Z,27.36
2022-08-08T12:09:17.151Z,27.35
2022-08-08T12:11:49.420Z,27.47
2022-08-08T12:14:24.065Z,27.50
2022-08-08T12:16:57.829Z,27.52
2022-08-08T12:19:37.869Z,27.47
2022-08-08T12:22:20.912Z,27.43
2022-08-08T12:24:53.935Z,27.23
2022-08-08T12:27:26.615Z,27.24
2022-08-08T12:30:02.196Z,26.95
2022-08-08T12:32:31.126Z,26.88
2022-08-08T12:35:13.623Z,26.88
2022-08-08T12:38:02.113Z,26.68
2022-08-08T12:40:54.038Z,26.77
2022-08-08T12:43:32.950Z,27.02
2022-08-08T12:46:19.324Z,26.93
2022-08-08T12:49:21.943Z,26.94
2022-08-08T12:51:58.757Z,26.78
2022-08-08T12:54:33.421Z,26.29
2022-08-08T12:57:17.147Z,26.16
2022-08-08T13:00:03.626Z,26.48
2022-08-08T13:02:36.243Z,26.68
2022-08-08T13:05:15.542Z,26.77
2022-08-08T13:08:03.785Z,26.72
2022-08-08T13:10:39.807Z,26.84
2022-08-08T13:13:35.318Z,26.89
2022-08-08T13:16:19.335Z,26.79
2022-08-08T13:18:58.313Z,26.91
2022-08-08T13:21:48.921Z,27.09
2022-08-08T13:24:38.510Z,27.22
2022-08-08T13:27:11.857Z,27.32
2022-08-08T13:29:50.744Z,27.20
2022-08-08T13:32:26.880Z,27.14
2022-08-08T13:34:56.823Z,27.06
2022-08-08T13:37:28.045Z,27.16
2022-08-08T13:40:27.115Z,26.88
2022-08-08T13:42:58.445Z,26.90
2022-08-08T13:45:26.681Z,26.93
2022-08-08T13:47:59.041Z,26.96
2022-08-08T13:50:39.620Z,26.90
2022-08-08T13:53:26.401Z,26.69
2022-08-08T13:56:01.363Z,26.48
2022-08-08T13:58:31.433Z,26.43
2022-08-08T14:01:13.705Z,26.60
2022-08-08T14:03:56.797Z,26.49
2022-08-08T14:06:33.170Z,26.27
2022-08-08T14:09:24.906Z,26.29
2022-08-08T14:11:50.686Z,26.20
2022-08-08T14:14:21.157Z,26.13
2022-08-08T14:16:55.415Z,26.08
2022-08-08T14:19:57.888Z,25.86
2022-08-08T14:22:25.567Z,25.85
2022-08-08T14:24:55.821Z,25.71
2022-08-08T14:27:29.722Z,25.70
2022-08-08T14:30:01.826Z,25.64
2022-08-08T14:32:31.683Z,25.67
2022-08-08T14:35:04.897Z,25.58
2022-08-08T14:37:43.144Z,25.53
2022-08-08T14:40:29.710Z,25.53
2022-08-08T14:42:59.747Z,25.39
2022-08-08T14:45:46.722Z,25.43
2022-08-08T14:48:34.244Z,25.35
2022-08-08T14:51:07.969Z,25.29
2022-08-08T14:53:55.060Z,25.31
2022-08-08T14:56:25.617Z,25.39
2022-08-08T14:58:54.600Z,25.51
2022-08-08T15:01:37.596Z,25.58
2022-08-08T15:04:11.830Z,25.64
2022-08-08T15:06:42.506Z,25.75
2022-08-08T15:09:12.436Z,25.90
2022-08-08T15:11:46.297Z,25.84
2022-08-08T15:14:25.114Z,25.79
2022-08-08T15:16:57.058Z,25.57
2022-08-08T15:19:28.126Z,25.64
2022-08-08T15:21:57.968Z,25.67
2022-08-08T15:24:31.842Z,25.90
2022-08-08T15:27:12.137Z,26.04
2022-08-08T15:29:48.593Z,26.09
2022-08-08T15:32:20.155Z,26.09
2022-08-08T15:34:50.497Z,25.88
2022-08-08T15:37:19.181Z,25.92
2022-08-08T15:39:47.954Z,25.94
2022-08-08T15:42:31.311Z,26.06
2022-08-08T15:45:00.482Z,26.09
2022-08-08T15:47:31.407Z,25.99
2022-08-08T15:50:00.545Z,25.94
2022-08-08T15:52:30.161Z,25.86
2022-08-08T15:55:01.219Z,25.91
2022-08-08T15:57:35.750Z,25.91
2022-08-08T16:00:26.844Z,25.91
2022-08-08T16:02:59.314Z,25.83
2022-08-08T16:05:35.507Z,25.91
2022-08-08T16:08:20.038Z,25.88
2022-08-08T16:13:05.264Z,25.76
2022-08-08T16:13:45.014Z,25.81
2022-08-08T16:16:17.533Z,25.87
2022-08-08T16:18:53.482Z,25.75
2022-08-08T16:21:28.114Z,25.62
2022-08-08T16:23:58.433Z,25.65
2022-08-08T16:26:33.661Z,25.63
2022-08-08T16:29:08.976Z,25.61
2022-08-08T16:31:40.940Z,25.60
2022-08-08T16:34:11.606Z,25.71
2022-08-08T16:36:40.712Z,25.74
2022-08-08T16:39:28.487Z,25.47
2022-08-08T16:42:00.818Z,25.28
2022-08-08T16:44:33.880Z,25.26
2022-08-08T16:47:16.698Z,25.24
2022-08-08T16:49:47.796Z,25.23
2022-08-08T16:55:01.540Z,25.21
2022-08-08T16:55:52.410Z,25.14
2022-08-08T16:58:15.684Z,25.01
2022-08-08T17:00:48.460Z,25.00
2022-08-08T17:03:18.123Z,25.05
2022-08-08T17:05:56.528Z,25.01
2022-08-08T17:08:24.534Z,24.97
2022-08-08T17:10:58.848Z,24.99
2022-08-08T17:13:49.701Z,24.97
2022-08-08T17:16:24.248Z,24.90
2022-08-08T17:18:52.519Z,24.78
2022-08-08T17:21:21.918Z,24.70
2022-08-08T17:24:00.312Z,24.71
2022-08-08T17:26:30.993Z,24.67
2022-08-08T17:29:04.502Z,24.72
2022-08-08T17:31:44.388Z,24.75
2022-08-08T17:34:49.205Z,24.70
2022-08-08T17:37:09.190Z,24.77
2022-08-08T17:40:03.166Z,24.63
2022-08-08T17:42:25.518Z,24.66
2022-08-08T17:44:53.417Z,24.61
2022-08-08T17:47:37.802Z,24.54
2022-08-08T17:50:09.898Z,24.54
2022-08-08T17:52:43.096Z,24.47
2022-08-08T17:56:03.880Z,24.48
2022-08-08T17:58:01.854Z,24.42
2022-08-08T18:00:31.392Z,24.40
2022-08-08T18:03:08.305Z,24.37
2022-08-08T18:05:48.755Z,24.32
2022-08-08T18:08:25.210Z,24.23
2022-08-08T18:11:14.682Z,24.24
2022-08-08T18:13:45.290Z,24.11
2022-08-08T18:16:20.841Z,24.09
2022-08-08T18:18:53.701Z,24.03
2022-08-08T18:21:35.230Z,23.90
2022-08-08T18:24:18.847Z,23.92
2022-08-08T18:26:54.422Z,23.93
2022-08-08T18:29:30.031Z,23.78
2022-08-08T18:32:04.131Z,23.72
2022-08-08T18:34:33.957Z,23.66
2022-08-08T18:37:04.972Z,23.62
2022-08-08T18:39:41.014Z,23.59
2022-08-08T18:42:14.312Z,23.63
2022-08-08T18:44:55.209Z,23.64
2022-08-08T18:47:24.415Z,23.58
2022-08-08T18:49:58.356Z,23.57
2022-08-08T18:52:28.292Z,23.44
2022-08-08T18:55:10.303Z,23.50
2022-08-08T18:57:45.057Z,23.39
2022-08-08T19:00:20.183Z,23.38
2022-08-08T19:03:06.023Z,23.28
2022-08-08T19:05:44.216Z,23.29
2022-08-08T19:08:25.644Z,23.20
2022-08-08T19:10:59.455Z,23.18
2022-08-08T19:13:38.243Z,23.13
2022-08-08T19:16:18.979Z,23.10
2022-08-08T19:18:54.460Z,23.01
2022-08-08T19:21:30.099Z,22.96
2022-08-08T19:23:59.330Z,22.88
2022-08-08T19:26:31.167Z,22.78
2022-08-08T19:28:59.868Z,22.71
2022-08-08T19:31:31.676Z,22.68
2022-08-08T19:34:29.789Z,22.61
2022-08-08T19:36:55.338Z,22.45
2022-08-08T19:39:26.699Z,22.42
2022-08-08T19:42:05.029Z,22.33
2022-08-08T19:44:43.288Z,22.28
2022-08-08T19:47:14.750Z,22.26
2022-08-08T19:50:00.631Z,22.19
2022-08-08T19:52:35.125Z,22.17
2022-08-08T19:55:09.258Z,22.04
2022-08-08T19:57:39.007Z,22.05
2022-08-08T20:00:11.540Z,21.94
2022-08-08T20:02:57.808Z,21.87
2022-08-08T20:06:14.361Z,21.87
2022-08-08T20:08:29.376Z,21.83
2022-08-08T20:11:00.702Z,21.82
2022-08-08T20:14:13.770Z,21.75
2022-08-08T20:16:19.147Z,21.66
2022-08-08T20:18:52.777Z,21.69
2022-08-08T20:21:22.974Z,21.60
2022-08-08T20:23:57.467Z,21.52
2022-08-08T20:26:33.534Z,21.48
2022-08-08T20:29:04.101Z,21.48
2022-08-08T20:32:07.307Z,21.47
2022-08-08T20:34:30.484Z,21.41
2022-08-08T20:37:00.604Z,21.37
2022-08-08T20:39:39.320Z,21.28
2022-08-08T20:42:19.090Z,21.24
2022-08-08T20:44:50.026Z,21.19
2022-08-08T20:47:23.555Z,21.14
2022-08-08T20:49:55.810Z,21.17
2022-08-08T20:52:27.613Z,21.15
2022-08-08T20:54:56.049Z,21.08
2022-08-08T20:57:26.915Z,21.03
2022-08-08T20:59:56.752Z,21.01
2022-08-08T21:02:25.625Z,20.97
2022-08-08T21:04:56.245Z,20.95
2022-08-08T21:07:31.262Z,20.87
2022-08-08T21:10:14.056Z,20.79
2022-08-08T21:12:45.936Z,20.76
2022-08-08T21:15:16.764Z,20.72
2022-08-08T21:18:04.134Z,20.66
2022-08-08T21:20:34.123Z,20.64
2022-08-08T21:23:03.342Z,20.55
2022-08-08T21:25:36.461Z,20.55
2022-08-08T21:28:15.017Z,20.57
2022-08-08T21:30:51.902Z,20.50
2022-08-08T21:33:21.228Z,20.41
2022-08-08T21:36:18.728Z,20.36
2022-08-08T21:38:37.354Z,20.33
2022-08-08T21:41:05.328Z,20.30
2022-08-08T21:43:35.613Z,20.23
2022-08-08T21:48:06.185Z,20.22
2022-08-08T21:48:55.114Z,20.22
2022-08-08T21:54:17.925Z,20.18
2022-08-08T21:54:22.740Z,20.14
2022-08-08T21:57:02.730Z,20.08
2022-08-08T22:00:02.717Z,20.09
2022-08-08T22:02:23.542Z,20.05
2022-08-08T22:04:53.418Z,19.97
2022-08-08T22:07:34.499Z,19.97
2022-08-08T22:10:09.618Z,19.85
2022-08-08T22:12:38.986Z,19.88
2022-08-08T22:15:08.569Z,19.82
2022-08-08T22:17:45.742Z,19.78
2022-08-08T22:20:19.017Z,19.77
2022-08-08T22:22:52.708Z,19.74
2022-08-08T22:25:25.269Z,19.72
2022-08-08T22:28:02.875Z,19.65
2022-08-08T22:30:33.664Z,19.56
2022-08-08T22:33:08.997Z,19.63
2022-08-08T22:36:05.545Z,19.56
2022-08-08T22:38:47.950Z,19.53
2022-08-08T22:41:21.770Z,19.51
2022-08-08T22:44:02.869Z,19.51
2022-08-08T22:46:34.537Z,19.47
2022-08-08T22:49:09.441Z,19.40
2022-08-08T22:51:42.474Z,19.38
2022-08-08T22:54:30.756Z,19.34
2022-08-08T22:57:11.544Z,19.27
2022-08-08T22:59:52.724Z,19.23
2022-08-08T23:02:29.118Z,19.29
2022-08-08T23:05:04.784Z,19.28
2022-08-08T23:07:49.388Z,19.21
2022-08-08T23:10:25.563Z,19.17
2022-08-08T23:12:56.138Z,19.09
2022-08-08T23:16:42.100Z,19.08
2022-08-08T23:18:13.128Z,19.05
2022-08-08T23:20:44.149Z,19.00
2022-08-08T23:23:12.995Z,18.96
2022-08-08T23:25:47.844Z,19.01
2022-08-08T23:28:18.051Z,19.02
2022-08-08T23:30:48.576Z,18.99
2022-08-08T23:33:20.850Z,19.02
2022-08-08T23:36:08.465Z,18.97
2022-08-08T23:38:43.934Z,18.91
2022-08-08T23:41:17.363Z,18.87
2022-08-08T23:43:54.331Z,18.80
2022-08-08T23:49:03.737Z,18.73
2022-08-08T23:49:18.102Z,18.74
2022-08-08T23:52:04.318Z,18.77
2022-08-08T23:54:41.666Z,18.72
2022-08-08T23:57:27.754Z,18.62
